Burlington, Wyoming
Current Conditions -  °F | °C
As of 5:53 PM on Monday 20 Oct 2014 (Local Time) from KGEY Reporting Station
Clear Clear  
Wind Chill: 73°   Ceiling: Unl
Heat Index: 73°   Visibility: 10mi
Dew Point: 28°   Wind: 0mph
Humidity: 19%   Direction: NA
Pressure: 29.87"   Gusts: NA
Location:  44.45°N, 108.43°W
Report Text: KGEY 202353Z AUTO 00000KT 10SM CLR 23/M02 A2987 RMK AO2 SLP103 T02281022 10250 20156 58012
Loading
Personal Weather Stations






























Interactive Weather Map
Tropical Storm Tracking
New forecast layout! Learn more

10-Day Weather Forecast

Advertisements
Track Severe Weather on mobile